createdAt,value
2017-10-17T00:01:47.874Z,8.10
2017-10-17T00:04:16.132Z,11.77
2017-10-17T00:06:43.649Z,11.20
2017-10-17T00:09:11.187Z,11.47
2017-10-17T00:11:38.721Z,8.33
2017-10-17T00:14:06.217Z,9.40
2017-10-17T00:16:33.733Z,9.60
2017-10-17T00:19:01.233Z,9.67
2017-10-17T00:21:28.748Z,8.23
2017-10-17T00:23:56.249Z,9.33
2017-10-17T00:26:23.767Z,7.97
2017-10-17T00:28:51.273Z,10.60
2017-10-17T00:31:18.810Z,10.68
2017-10-17T00:33:47.081Z,10.10
2017-10-17T00:36:15.373Z,13.80
2017-10-17T00:38:43.620Z,8.90
2017-10-17T00:41:11.142Z,8.80
2017-10-17T00:43:38.659Z,12.70
2017-10-17T00:46:09.570Z,9.20
2017-10-17T00:48:37.065Z,11.40
2017-10-17T00:51:21.030Z,8.63
2017-10-17T00:53:48.541Z,11.10
2017-10-17T00:56:16.110Z,9.73
2017-10-17T00:58:43.654Z,12.03
2017-10-17T01:01:11.186Z,10.77
2017-10-17T01:03:38.706Z,11.57
2017-10-17T01:06:07.041Z,14.40
2017-10-17T01:08:34.537Z,6.60
2017-10-17T01:11:02.832Z,12.90
2017-10-17T01:13:30.333Z,17.73
2017-10-17T01:15:57.852Z,9.37
2017-10-17T01:18:26.085Z,13.00
2017-10-17T01:20:55.538Z,10.17
2017-10-17T01:23:41.497Z,10.70
2017-10-17T01:26:10.529Z,10.70
2017-10-17T01:28:38.030Z,8.50
2017-10-17T01:31:05.553Z,10.37
2017-10-17T01:33:33.047Z,10.70
2017-10-17T01:36:00.564Z,10.67
2017-10-17T01:38:33.421Z,9.37
2017-10-17T01:41:01.718Z,11.47
2017-10-17T01:43:29.227Z,10.03
2017-10-17T01:45:57.590Z,10.47
2017-10-17T01:48:25.897Z,10.43
2017-10-17T01:51:04.249Z,7.43
2017-10-17T01:53:38.178Z,8.60
2017-10-17T01:56:05.705Z,10.47
2017-10-17T01:58:36.678Z,9.50
2017-10-17T02:01:11.661Z,9.60
2017-10-17T02:03:39.156Z,9.63
2017-10-17T02:06:06.679Z,8.97
2017-10-17T02:08:34.190Z,8.60
2017-10-17T02:11:02.572Z,10.73
2017-10-17T02:13:30.068Z,16.97
2017-10-17T02:15:57.636Z,10.40
2017-10-17T02:18:27.056Z,14.55
2017-10-17T02:20:57.882Z,7.93
2017-10-17T02:23:35.309Z,11.20
2017-10-17T02:28:59.489Z,8.87
2017-10-17T02:31:28.582Z,14.73
2017-10-17T02:34:05.470Z,9.23
2017-10-17T02:36:33.001Z,9.67
2017-10-17T02:39:00.503Z,9.67
2017-10-17T02:41:28.026Z,10.13
2017-10-17T02:43:57.247Z,12.23
2017-10-17T02:46:25.546Z,12.70
2017-10-17T02:48:58.681Z,8.23
2017-10-17T02:51:26.224Z,9.77
2017-10-17T02:53:53.720Z,13.63
2017-10-17T02:56:21.237Z,8.23
2017-10-17T02:58:48.741Z,10.63
2017-10-17T03:01:22.844Z,10.70
2017-10-17T03:03:50.352Z,16.15
2017-10-17T03:06:17.890Z,17.87
2017-10-17T03:08:46.163Z,14.90
2017-10-17T03:11:15.960Z,18.12
2017-10-17T03:13:45.154Z,11.63
2017-10-17T03:16:12.690Z,12.53
2017-10-17T03:18:40.199Z,12.30
2017-10-17T03:24:16.067Z,13.50
2017-10-17T03:26:44.366Z,13.23
2017-10-17T03:29:11.864Z,11.90
2017-10-17T03:31:39.400Z,15.20
2017-10-17T03:34:10.646Z,12.67
2017-10-17T03:36:43.621Z,12.37
2017-10-17T03:39:11.121Z,15.03
2017-10-17T03:41:38.689Z,10.00
2017-10-17T03:44:10.601Z,19.95
2017-10-17T03:46:39.922Z,14.97
2017-10-17T03:49:09.942Z,13.00
2017-10-17T03:51:37.460Z,10.98
2017-10-17T03:54:11.170Z,29.07
2017-10-17T03:56:39.497Z,10.27
2017-10-17T03:59:09.709Z,12.68
2017-10-17T04:01:37.221Z,11.73
2017-10-17T04:04:08.308Z,12.80
2017-10-17T04:06:51.607Z,15.23
2017-10-17T04:09:19.876Z,14.38
2017-10-17T04:11:48.164Z,14.60
2017-10-17T04:14:38.076Z,12.23
2017-10-17T04:17:21.529Z,13.02
2017-10-17T04:19:53.603Z,13.80
2017-10-17T04:22:26.797Z,11.80
2017-10-17T04:25:04.813Z,10.57
2017-10-17T04:27:37.876Z,11.88
2017-10-17T04:30:16.077Z,13.27
2017-10-17T04:32:50.172Z,17.33
2017-10-17T04:35:18.399Z,16.48
2017-10-17T04:37:47.551Z,13.85
2017-10-17T04:40:25.901Z,11.75
2017-10-17T04:46:16.304Z,15.10
2017-10-17T04:48:56.253Z,11.53
2017-10-17T04:54:36.999Z,10.80
2017-10-17T04:57:06.293Z,11.07
2017-10-17T05:02:40.075Z,15.07
2017-10-17T05:05:19.170Z,9.00
2017-10-17T05:08:15.049Z,9.97
2017-10-17T05:10:43.280Z,9.77
2017-10-17T05:13:48.393Z,11.23
2017-10-17T05:16:20.288Z,11.33
2017-10-17T05:21:49.720Z,9.70
2017-10-17T05:24:36.016Z,12.57
2017-10-17T05:27:31.832Z,9.82
2017-10-17T05:30:12.749Z,13.47
2017-10-17T05:32:40.265Z,9.67
2017-10-17T05:35:07.786Z,11.13
2017-10-17T05:37:35.315Z,9.88
2017-10-17T05:40:18.639Z,11.52
2017-10-17T05:42:46.203Z,11.93
2017-10-17T05:45:14.620Z,12.23
2017-10-17T05:47:45.007Z,9.30
2017-10-17T05:50:15.176Z,13.50
2017-10-17T05:52:45.409Z,8.05
2017-10-17T05:55:13.688Z,11.97
2017-10-17T05:57:41.980Z,11.50
2017-10-17T06:00:09.486Z,12.33
2017-10-17T06:02:37.012Z,7.70
2017-10-17T06:05:04.743Z,8.90
2017-10-17T06:07:32.368Z,13.70
2017-10-17T06:10:00.300Z,8.70
2017-10-17T06:12:27.869Z,11.23
2017-10-17T06:14:55.509Z,9.13
2017-10-17T06:17:23.029Z,13.73
2017-10-17T06:19:50.544Z,9.55
2017-10-17T06:22:18.079Z,12.68
2017-10-17T06:24:46.364Z,14.82
2017-10-17T06:27:14.660Z,14.57
2017-10-17T06:29:42.165Z,15.60
2017-10-17T06:32:09.693Z,10.00
2017-10-17T06:34:37.210Z,18.52
2017-10-17T06:37:05.508Z,7.40
2017-10-17T06:39:33.018Z,10.50
2017-10-17T06:42:00.568Z,10.05
2017-10-17T06:44:28.076Z,11.80
2017-10-17T06:46:56.365Z,16.07
2017-10-17T06:49:23.877Z,12.77
2017-10-17T06:51:51.417Z,13.97
2017-10-17T06:54:18.925Z,14.33
2017-10-17T06:56:47.222Z,11.90
2017-10-17T06:59:14.727Z,9.50
2017-10-17T07:01:42.261Z,10.23
2017-10-17T07:04:09.764Z,9.23
2017-10-17T07:06:37.304Z,8.82
2017-10-17T07:09:04.797Z,7.13
2017-10-17T07:11:33.094Z,11.77
2017-10-17T07:14:01.373Z,7.70
2017-10-17T07:16:29.661Z,9.63
2017-10-17T07:18:57.170Z,11.10
2017-10-17T07:21:24.703Z,9.90
2017-10-17T07:23:52.217Z,8.00
2017-10-17T07:26:20.512Z,8.47
2017-10-17T07:28:48.018Z,13.07
2017-10-17T07:31:15.537Z,10.50
2017-10-17T07:33:43.042Z,7.83
2017-10-17T07:36:10.561Z,8.00
2017-10-17T07:38:38.066Z,9.00
2017-10-17T07:41:05.588Z,10.90
2017-10-17T07:43:33.086Z,8.73
2017-10-17T07:46:00.617Z,7.80
2017-10-17T07:48:28.140Z,7.57
2017-10-17T07:50:55.664Z,7.93
2017-10-17T07:53:23.169Z,9.10
2017-10-17T07:55:50.694Z,8.27
2017-10-17T07:58:18.193Z,13.67
2017-10-17T08:00:45.732Z,7.70
2017-10-17T08:03:14.024Z,9.90
2017-10-17T08:05:41.540Z,10.73
2017-10-17T08:08:09.283Z,9.60
2017-10-17T08:10:36.797Z,14.30
2017-10-17T08:13:05.079Z,9.07
2017-10-17T08:15:32.580Z,6.57
2017-10-17T08:18:00.098Z,9.37
2017-10-17T08:20:27.605Z,8.47
2017-10-17T08:22:55.134Z,10.13
2017-10-17T08:25:22.642Z,12.77
2017-10-17T08:27:50.156Z,8.50
2017-10-17T08:30:17.655Z,12.73
2017-10-17T08:32:45.178Z,14.57
2017-10-17T08:35:12.686Z,13.90
2017-10-17T08:37:40.204Z,9.47
2017-10-17T08:40:07.717Z,8.70
2017-10-17T08:42:36.012Z,10.80
2017-10-17T08:45:03.514Z,9.97
2017-10-17T08:47:31.033Z,8.90
2017-10-17T08:49:58.541Z,7.23
2017-10-17T08:52:26.074Z,10.00
2017-10-17T08:54:53.585Z,9.60
2017-10-17T08:57:21.112Z,10.50
2017-10-17T08:59:48.622Z,11.33
2017-10-17T09:02:16.914Z,17.13
2017-10-17T09:04:44.420Z,10.67
2017-10-17T09:07:11.955Z,10.47
2017-10-17T09:09:39.475Z,16.03
2017-10-17T09:12:07.768Z,9.00
2017-10-17T09:14:35.276Z,14.13
2017-10-17T09:17:02.798Z,17.70
2017-10-17T09:19:30.296Z,9.20
2017-10-17T09:21:57.814Z,15.07
2017-10-17T09:24:25.319Z,12.33
2017-10-17T09:26:52.850Z,12.73
2017-10-17T09:29:20.349Z,9.07
2017-10-17T09:31:47.872Z,10.00
2017-10-17T09:34:15.378Z,8.90
2017-10-17T09:36:43.675Z,13.40
2017-10-17T09:39:11.937Z,14.03
2017-10-17T09:41:40.224Z,10.43
2017-10-17T09:44:08.494Z,10.50
2017-10-17T09:46:36.776Z,9.30
2017-10-17T09:49:05.042Z,14.70
2017-10-17T09:51:32.558Z,11.87
2017-10-17T09:54:00.068Z,13.40
2017-10-17T09:56:28.362Z,9.33
2017-10-17T09:58:55.871Z,10.60
2017-10-17T10:01:23.398Z,12.23
2017-10-17T10:03:50.910Z,15.73
2017-10-17T10:06:18.438Z,12.80
2017-10-17T10:08:45.930Z,13.30
2017-10-17T10:11:13.456Z,12.13
2017-10-17T10:13:40.957Z,12.07
2017-10-17T10:16:09.244Z,13.03
2017-10-17T10:18:37.521Z,16.87
2017-10-17T10:21:05.060Z,10.63
2017-10-17T10:23:36.130Z,14.33
2017-10-17T10:26:04.423Z,10.23
2017-10-17T10:28:31.922Z,12.20
2017-10-17T10:30:59.462Z,16.37
2017-10-17T10:33:27.734Z,10.87
2017-10-17T10:35:55.264Z,9.23
2017-10-17T10:38:23.537Z,11.37
2017-10-17T10:40:51.832Z,12.53
2017-10-17T10:43:19.341Z,13.30
2017-10-17T10:45:46.861Z,14.30
2017-10-17T10:48:14.368Z,10.87
2017-10-17T10:50:41.897Z,14.37
2017-10-17T10:53:09.401Z,11.10
2017-10-17T10:55:37.694Z,15.77
2017-10-17T10:58:05.205Z,18.10
2017-10-17T11:00:32.728Z,13.03
2017-10-17T11:03:01.154Z,11.33
2017-10-17T11:05:28.676Z,12.30
2017-10-17T11:07:56.179Z,14.30
2017-10-17T11:10:23.709Z,14.90
2017-10-17T11:12:51.205Z,14.53
2017-10-17T11:15:18.729Z,17.53
2017-10-17T11:17:46.238Z,10.50
2017-10-17T11:20:14.534Z,16.03
2017-10-17T11:22:42.036Z,13.90
2017-10-17T11:25:09.560Z,17.03
2017-10-17T11:27:37.065Z,14.13
2017-10-17T11:30:04.592Z,13.63
2017-10-17T11:32:32.096Z,11.47
2017-10-17T11:34:59.626Z,12.97
2017-10-17T11:37:27.141Z,9.40
2017-10-17T11:39:55.612Z,14.23
2017-10-17T11:42:35.600Z,14.07
2017-10-17T11:45:03.124Z,12.83
2017-10-17T11:47:31.393Z,11.10
2017-10-17T11:49:58.918Z,15.43
2017-10-17T11:52:26.417Z,18.33
2017-10-17T11:54:54.713Z,9.50
2017-10-17T11:57:22.226Z,11.50
2017-10-17T11:59:49.759Z,14.57
2017-10-17T12:02:17.252Z,16.60
2017-10-17T12:04:44.782Z,12.03
2017-10-17T12:07:12.289Z,14.33
2017-10-17T12:09:39.814Z,15.53
2017-10-17T12:12:07.314Z,11.90
2017-10-17T12:14:35.610Z,17.13
2017-10-17T12:17:03.131Z,11.83
2017-10-17T12:19:30.658Z,8.50
2017-10-17T12:21:58.167Z,14.10
2017-10-17T12:24:26.464Z,13.97
2017-10-17T12:26:54.724Z,9.30
2017-10-17T12:29:23.056Z,14.93
2017-10-17T12:31:50.566Z,15.03
2017-10-17T12:34:18.855Z,14.63
2017-10-17T12:36:47.133Z,13.33
2017-10-17T12:39:15.415Z,13.40
2017-10-17T12:41:42.914Z,11.20
2017-10-17T12:44:10.434Z,14.60
2017-10-17T12:46:39.868Z,11.00
2017-10-17T12:49:07.467Z,13.03
2017-10-17T12:51:34.993Z,11.40
2017-10-17T12:54:04.450Z,11.53
2017-10-17T12:56:32.723Z,17.83
2017-10-17T12:59:01.002Z,14.67
2017-10-17T13:01:29.289Z,15.37
2017-10-17T13:03:56.802Z,16.13
2017-10-17T13:06:24.333Z,13.47
2017-10-17T13:08:51.848Z,15.63
2017-10-17T13:11:19.366Z,12.87
2017-10-17T13:13:50.042Z,13.63
2017-10-17T13:16:17.586Z,15.40
2017-10-17T13:18:45.139Z,14.60
2017-10-17T13:21:12.674Z,12.20
2017-10-17T13:23:40.186Z,20.03
2017-10-17T13:26:07.786Z,16.53
2017-10-17T13:28:35.286Z,14.70
2017-10-17T13:31:02.818Z,16.00
2017-10-17T13:33:30.331Z,11.70
2017-10-17T13:35:58.629Z,13.83
2017-10-17T13:38:26.138Z,12.33
2017-10-17T13:40:53.790Z,11.73
2017-10-17T13:43:31.677Z,12.43
2017-10-17T13:45:59.199Z,14.43
2017-10-17T13:48:28.165Z,13.23
2017-10-17T13:50:55.698Z,14.03
2017-10-17T13:53:33.597Z,15.30
2017-10-17T13:56:01.120Z,18.80
2017-10-17T13:58:29.398Z,11.70
2017-10-17T14:00:56.930Z,14.70
2017-10-17T14:03:24.452Z,12.37
2017-10-17T14:05:51.981Z,17.23
2017-10-17T14:08:19.490Z,12.43
2017-10-17T14:10:47.013Z,12.17
2017-10-17T14:13:14.530Z,13.73
2017-10-17T14:15:42.062Z,10.53
2017-10-17T14:18:09.585Z,14.90
2017-10-17T14:20:37.121Z,18.90
2017-10-17T14:23:05.405Z,13.77
2017-10-17T14:25:33.693Z,11.40
2017-10-17T14:28:01.193Z,16.87
2017-10-17T14:30:28.718Z,14.93
2017-10-17T14:32:56.232Z,11.37
2017-10-17T14:35:23.749Z,16.37
2017-10-17T14:37:51.258Z,9.83
2017-10-17T14:40:18.793Z,16.17
2017-10-17T14:42:53.617Z,12.27
2017-10-17T14:45:23.071Z,14.43
2017-10-17T14:47:51.355Z,20.83
2017-10-17T14:50:19.642Z,13.20
2017-10-17T14:52:47.912Z,18.53
2017-10-17T14:55:16.196Z,15.90
2017-10-17T14:57:44.462Z,13.57
2017-10-17T15:00:12.749Z,18.63
2017-10-17T15:02:40.261Z,12.23
2017-10-17T15:05:07.851Z,14.30
2017-10-17T15:07:36.155Z,9.83
2017-10-17T15:10:03.752Z,13.43
2017-10-17T15:12:31.267Z,12.33
2017-10-17T15:14:58.797Z,17.40
2017-10-17T15:17:26.324Z,12.23
2017-10-17T15:19:53.920Z,12.37
2017-10-17T15:22:22.701Z,13.77
2017-10-17T15:24:51.029Z,10.93
2017-10-17T15:27:18.534Z,12.13
2017-10-17T15:29:46.064Z,17.23
2017-10-17T15:32:13.565Z,16.97
2017-10-17T15:34:41.099Z,11.70
2017-10-17T15:37:08.609Z,11.47
2017-10-17T15:39:36.901Z,19.03
2017-10-17T15:42:05.346Z,13.03
2017-10-17T15:44:32.872Z,14.63
2017-10-17T15:47:00.378Z,19.83
2017-10-17T15:49:28.676Z,16.33
2017-10-17T15:51:56.185Z,11.30
2017-10-17T15:54:23.777Z,15.90
2017-10-17T15:56:52.063Z,16.20
2017-10-17T15:59:20.362Z,19.43
2017-10-17T16:01:47.862Z,16.57
2017-10-17T16:04:15.388Z,15.97
2017-10-17T16:06:42.889Z,13.03
2017-10-17T16:09:10.413Z,20.33
2017-10-17T16:11:37.913Z,16.97
2017-10-17T16:14:05.445Z,21.40
2017-10-17T16:16:32.951Z,12.60
2017-10-17T16:19:01.253Z,13.30
2017-10-17T16:21:28.762Z,13.77
2017-10-17T16:23:56.285Z,14.23
2017-10-17T16:26:23.838Z,10.67
2017-10-17T16:28:51.385Z,16.37
2017-10-17T16:31:18.904Z,14.37
2017-10-17T16:33:46.423Z,16.63
2017-10-17T16:36:13.929Z,14.60
2017-10-17T16:38:41.453Z,12.37
2017-10-17T16:41:09.720Z,18.97
2017-10-17T16:43:37.242Z,13.67
2017-10-17T16:46:05.507Z,17.13
2017-10-17T16:48:33.026Z,16.00
2017-10-17T16:51:00.534Z,18.43
2017-10-17T16:53:28.820Z,14.50
2017-10-17T16:55:57.089Z,17.87
2017-10-17T16:58:25.380Z,21.20
2017-10-17T17:00:52.890Z,11.27
2017-10-17T17:03:20.414Z,16.30
2017-10-17T17:05:47.917Z,15.43
2017-10-17T17:08:15.446Z,19.40
2017-10-17T17:10:42.958Z,15.93
2017-10-17T17:13:10.481Z,18.17
2017-10-17T17:15:37.990Z,23.23
2017-10-17T17:18:06.285Z,20.10
2017-10-17T17:20:33.785Z,20.13
2017-10-17T17:23:01.310Z,22.37
2017-10-17T17:25:28.814Z,19.00
2017-10-17T17:27:56.346Z,20.93
2017-10-17T17:30:23.850Z,29.23
2017-10-17T17:32:51.383Z,28.67
2017-10-17T17:35:18.893Z,23.17
2017-10-17T17:37:46.426Z,21.80
2017-10-17T17:40:13.933Z,21.00
2017-10-17T17:42:41.457Z,16.93
2017-10-17T17:45:09.737Z,19.73
2017-10-17T17:47:38.034Z,14.93
2017-10-17T17:50:05.542Z,17.10
2017-10-17T17:52:33.066Z,16.07
2017-10-17T17:55:00.589Z,20.00
2017-10-17T17:57:28.878Z,17.80
2017-10-17T17:59:57.149Z,19.53
2017-10-17T18:02:25.462Z,25.60
2017-10-17T18:04:55.976Z,15.53
2017-10-17T18:07:23.510Z,19.93
2017-10-17T18:09:51.014Z,14.97
2017-10-17T18:12:18.551Z,18.20
2017-10-17T18:14:46.820Z,20.23
2017-10-17T18:17:15.129Z,18.20
2017-10-17T18:19:42.629Z,18.47
2017-10-17T18:22:10.157Z,20.97
2017-10-17T18:24:37.667Z,23.30
2017-10-17T18:27:05.960Z,26.23
2017-10-17T18:29:33.505Z,27.33
2017-10-17T18:32:01.055Z,29.83
2017-10-17T18:34:28.610Z,25.53
2017-10-17T18:36:56.133Z,22.70
2017-10-17T18:39:23.699Z,16.90
2017-10-17T18:41:51.233Z,15.90
2017-10-17T18:44:18.751Z,25.43
2017-10-17T18:46:46.281Z,22.53
2017-10-17T18:49:13.789Z,20.02
2017-10-17T18:51:42.098Z,18.00
2017-10-17T18:54:09.605Z,17.67
2017-10-17T18:56:37.132Z,23.20
2017-10-17T18:59:04.650Z,27.03
2017-10-17T19:01:33.033Z,18.13
2017-10-17T19:04:07.640Z,19.70
2017-10-17T19:06:35.189Z,18.80
2017-10-17T19:09:02.709Z,21.07
2017-10-17T19:11:30.270Z,17.70
2017-10-17T19:13:58.696Z,23.07
2017-10-17T19:16:26.221Z,14.43
2017-10-17T19:18:53.727Z,16.70
2017-10-17T19:21:22.166Z,17.03
2017-10-17T19:23:49.670Z,17.63
2017-10-17T19:26:17.945Z,21.07
2017-10-17T19:28:46.237Z,14.43
2017-10-17T19:31:13.786Z,23.10
2017-10-17T19:33:42.080Z,14.97
2017-10-17T19:36:09.613Z,19.70
2017-10-17T19:38:37.141Z,12.53
2017-10-17T19:41:04.644Z,16.20
2017-10-17T19:43:32.949Z,19.17
2017-10-17T19:46:00.465Z,17.43
2017-10-17T19:48:28.012Z,19.33
2017-10-17T19:50:55.512Z,15.50
2017-10-17T19:53:23.049Z,16.67
2017-10-17T19:55:50.556Z,23.77
2017-10-17T19:58:18.073Z,15.87
2017-10-17T20:00:47.085Z,16.63
2017-10-17T20:03:14.647Z,15.93
2017-10-17T20:05:42.920Z,17.70
2017-10-17T20:08:11.222Z,21.50
2017-10-17T20:10:38.728Z,18.90
2017-10-17T20:13:06.313Z,21.20
2017-10-17T20:15:34.626Z,22.57
2017-10-17T20:18:02.162Z,16.47
2017-10-17T20:20:30.428Z,15.53
2017-10-17T20:22:59.731Z,20.70
2017-10-17T20:25:28.002Z,17.00
2017-10-17T20:27:56.309Z,18.00
2017-10-17T20:30:23.830Z,21.03
2017-10-17T20:32:51.371Z,18.60
2017-10-17T20:35:18.901Z,21.95
2017-10-17T20:37:46.433Z,17.83
2017-10-17T20:40:13.991Z,18.40
2017-10-17T20:42:41.600Z,19.10
2017-10-17T20:45:09.109Z,21.30
2017-10-17T20:47:38.578Z,19.67
2017-10-17T20:50:06.090Z,16.05
2017-10-17T20:52:35.366Z,20.63
2017-10-17T20:55:03.649Z,21.77
2017-10-17T20:57:31.941Z,19.37
2017-10-17T20:59:59.449Z,18.57
2017-10-17T21:02:27.391Z,20.20
2017-10-17T21:04:55.739Z,23.38
2017-10-17T21:07:23.282Z,20.83
2017-10-17T21:09:51.049Z,19.07
2017-10-17T21:12:18.638Z,17.60
2017-10-17T21:14:46.165Z,20.10
2017-10-17T21:17:14.219Z,21.10
2017-10-17T21:19:41.753Z,19.77
2017-10-17T21:22:09.277Z,16.83
2017-10-17T21:24:36.801Z,18.30
2017-10-17T21:27:04.467Z,16.87
2017-10-17T21:29:31.975Z,21.63
2017-10-17T21:31:59.512Z,15.43
2017-10-17T21:34:27.868Z,18.80
2017-10-17T21:36:55.504Z,22.07
2017-10-17T21:39:23.029Z,20.10
2017-10-17T21:41:50.701Z,16.43
2017-10-17T21:44:18.205Z,20.73
2017-10-17T21:46:45.733Z,15.60
2017-10-17T21:49:13.281Z,26.77
2017-10-17T21:51:40.818Z,21.53
2017-10-17T21:54:09.098Z,18.20
2017-10-17T21:56:36.628Z,17.85
2017-10-17T21:59:04.129Z,21.37
2017-10-17T22:01:31.654Z,18.30
2017-10-17T22:03:59.172Z,17.67
2017-10-17T22:06:26.692Z,18.83
2017-10-17T22:08:54.213Z,16.50
2017-10-17T22:11:21.750Z,17.53
2017-10-17T22:13:49.253Z,20.50
2017-10-17T22:16:17.570Z,19.83
2017-10-17T22:18:45.091Z,19.47
2017-10-17T22:21:12.849Z,17.47
2017-10-17T22:23:40.363Z,16.03
2017-10-17T22:26:07.890Z,21.03
2017-10-17T22:28:36.161Z,17.10
2017-10-17T22:31:04.455Z,15.13
2017-10-17T22:33:32.729Z,22.20
2017-10-17T22:36:01.025Z,22.03
2017-10-17T22:38:28.543Z,18.17
2017-10-17T22:40:56.045Z,21.90
2017-10-17T22:43:23.577Z,20.30
2017-10-17T22:45:51.852Z,27.27
2017-10-17T22:48:20.159Z,21.77
2017-10-17T22:50:47.669Z,22.73
2017-10-17T22:53:15.188Z,19.67
2017-10-17T22:55:42.693Z,25.90
2017-10-17T22:58:10.221Z,21.00
2017-10-17T23:00:37.742Z,22.80
2017-10-17T23:03:06.031Z,19.07
2017-10-17T23:05:33.608Z,25.53
2017-10-17T23:08:01.143Z,21.17
2017-10-17T23:10:28.648Z,23.87
2017-10-17T23:12:56.164Z,25.53
2017-10-17T23:15:23.686Z,33.00
2017-10-17T23:18:03.770Z,27.73
2017-10-17T23:20:37.614Z,22.97
2017-10-17T23:23:05.154Z,20.97
2017-10-17T23:25:32.679Z,21.42
2017-10-17T23:28:01.002Z,22.63
2017-10-17T23:30:28.514Z,20.98
2017-10-17T23:32:56.053Z,20.50
2017-10-17T23:35:23.572Z,19.12
2017-10-17T23:37:51.105Z,17.40
2017-10-17T23:40:19.386Z,24.20
2017-10-17T23:42:47.685Z,22.23
2017-10-17T23:45:15.194Z,22.20
2017-10-17T23:47:42.730Z,17.30
2017-10-17T23:50:10.241Z,19.13
2017-10-17T23:52:38.541Z,20.07
2017-10-17T23:55:06.057Z,17.80
2017-10-17T23:57:33.581Z,15.27
